首页
METAR-TAF:

METAR-TAF

机场 :

薩萊諾, 意大利

纬度: 40-37N, 经度: 014-55E, 海拔: 40米

当前天气观测

该预报发布于3小时和32分钟前的15:50 UTC
风速2节,风向南转西南
温度 14°C
湿度 63%
气压 1024 hPa
能见度10公里或以上
1500米以下无云,无积雨云

METAR: LIRI 211550Z 20002KT CAVOK 14/07 Q1024

时间: 20:22 (19:22 UTC)


TAF: 丢失

超过4000个机场的气象观测和天气预报(METAR&TAF报告)。

可查询的气象台以黄色和红色小点在地图上表示。

将鼠标移到小点上方,可查看气象台名称。

然后点击查看天气观测和预报。

如需切换地图:点击带黑十字的绿色按钮放大地图;点击带横线的绿色按钮缩小地图;或者点击绿色箭头查看邻近地区的地图。


METAR-TAF: